Time,TemperatureF,DewpointF,PressureIn,WindDirection,WindDirectionDegrees,WindSpeedMPH,WindSpeedGustMPH,Humidity,HourlyPrecipIn,Conditions,Clouds,dailyrainin,SoftwareType,DateUTC
2013-08-12 00:04:00,66.9,56.4,29.97,WNW,291,0.0,14.0,69,0.00,,,0.00,Weather View 32 v70,2013-08-12 07:04:00,
2013-08-12 00:09:00,66.6,56.1,29.97,WNW,287,0.0,14.0,69,0.00,,,0.00,Weather View 32 v70,2013-08-12 07:09:00,
2013-08-12 00:14:00,66.4,56.3,29.97,WNW,287,0.0,14.0,70,0.00,,,0.00,Weather View 32 v70,2013-08-12 07:14:00,
2013-08-12 00:19:00,66.4,56.3,29.97,West,280,3.0,13.0,70,0.00,,,0.00,Weather View 32 v70,2013-08-12 07:19:00,
2013-08-12 00:24:00,66.6,56.5,29.97,West,278,3.0,12.0,70,0.00,,,0.00,Weather View 32 v70,2013-08-12 07:24:00,
2013-08-12 00:29:00,66.8,56.3,29.97,West,259,3.0,12.0,69,0.00,,,0.00,Weather View 32 v70,2013-08-12 07:29:00,
2013-08-12 00:34:00,66.8,56.3,29.97,WSW,239,9.0,12.0,69,0.00,,,0.00,Weather View 32 v70,2013-08-12 07:34:00,
2013-08-12 00:39:00,66.8,56.3,29.97,WSW,251,7.0,12.0,69,0.00,,,0.00,Weather View 32 v70,2013-08-12 07:39:00,
2013-08-12 00:44:00,66.9,56.4,29.97,West,265,2.0,11.0,69,0.00,,,0.00,Weather View 32 v70,2013-08-12 07:44:00,
2013-08-12 00:49:00,66.8,56.3,29.97,WNW,293,6.0,11.0,69,0.00,,,0.00,Weather View 32 v70,2013-08-12 07:49:00,
2013-08-12 00:54:00,66.8,56.3,29.97,West,275,4.0,11.0,69,0.00,,,0.00,Weather View 32 v70,2013-08-12 07:54:00,
2013-08-12 00:59:00,66.6,56.1,29.97,West,272,2.0,11.0,69,0.00,,,0.00,Weather View 32 v70,2013-08-12 07:59:00,
2013-08-12 01:04:00,66.6,56.1,29.97,NW,304,2.0,11.0,69,0.00,,,0.00,Weather View 32 v70,2013-08-12 08:04:00,
2013-08-12 01:09:00,66.4,55.9,29.97,NW,304,0.0,11.0,69,0.00,,,0.00,Weather View 32 v70,2013-08-12 08:09:00,
2013-08-12 01:14:00,66.1,56.4,29.97,NW,304,0.0,11.0,71,0.00,,,0.00,Weather View 32 v70,2013-08-12 08:14:00,
2013-08-12 01:19:00,65.8,56.1,29.97,NW,304,0.0,11.0,71,0.00,,,0.00,Weather View 32 v70,2013-08-12 08:19:00,
2013-08-12 01:24:00,65.5,56.2,29.97,NW,304,0.0,11.0,72,0.00,,,0.00,Weather View 32 v70,2013-08-12 08:24:00,
2013-08-12 01:29:00,64.7,54.7,29.97,NW,304,0.0,11.0,70,0.00,,,0.00,Weather View 32 v70,2013-08-12 08:29:00,
2013-08-12 01:34:00,63.7,54.5,29.97,NW,304,0.0,11.0,72,0.00,,,0.00,Weather View 32 v70,2013-08-12 08:34:00,
2013-08-12 01:39:00,62.7,54.3,29.97,NW,304,0.0,11.0,74,0.00,,,0.00,Weather View 32 v70,2013-08-12 08:39:00,
2013-08-12 01:44:00,62.1,54.1,29.97,WNW,303,3.0,11.0,75,0.00,,,0.00,Weather View 32 v70,2013-08-12 08:44:00,
2013-08-12 01:49:00,61.8,54.1,29.97,WNW,303,0.0,11.0,76,0.00,,,0.00,Weather View 32 v70,2013-08-12 08:49:00,
2013-08-12 01:54:00,62.3,55.3,29.97,WNW,302,0.0,8.0,78,0.00,,,0.00,Weather View 32 v70,2013-08-12 08:54:00,
2013-08-12 01:59:00,62.7,56.1,29.96,WNW,302,0.0,8.0,79,0.00,,,0.00,Weather View 32 v70,2013-08-12 08:59:00,
2013-08-12 02:04:00,62.7,54.6,29.96,WNW,302,0.0,7.0,75,0.00,,,0.00,Weather View 32 v70,2013-08-12 09:04:00,
2013-08-12 02:09:00,62.3,54.3,29.96,WNW,302,0.0,6.0,75,0.00,,,0.00,Weather View 32 v70,2013-08-12 09:09:00,
2013-08-12 02:14:00,61.8,54.1,29.96,WNW,302,0.0,6.0,76,0.00,,,0.00,Weather View 32 v70,2013-08-12 09:14:00,
2013-08-12 02:19:00,61.3,54.0,29.97,WNW,302,0.0,6.0,77,0.00,,,0.00,Weather View 32 v70,2013-08-12 09:19:00,
2013-08-12 02:24:00,61.2,53.9,29.96,WNW,302,0.0,6.0,77,0.00,,,0.00,Weather View 32 v70,2013-08-12 09:24:00,
2013-08-12 02:29:00,61.0,54.1,29.96,WNW,302,0.0,6.0,78,0.00,,,0.00,Weather View 32 v70,2013-08-12 09:29:00,
2013-08-12 02:34:00,61.5,55.3,29.96,WNW,302,0.0,6.0,80,0.00,,,0.00,Weather View 32 v70,2013-08-12 09:34:00,
2013-08-12 02:39:00,62.3,56.4,29.96,WNW,293,0.0,6.0,81,0.00,,,0.00,Weather View 32 v70,2013-08-12 09:39:00,
2013-08-12 02:44:00,62.9,56.6,29.96,WNW,292,2.0,6.0,80,0.00,,,0.00,Weather View 32 v70,2013-08-12 09:44:00,
2013-08-12 02:49:00,63.4,56.4,29.96,West,260,4.0,9.0,78,0.00,,,0.00,Weather View 32 v70,2013-08-12 09:49:00,
2013-08-12 02:54:00,63.7,56.3,29.96,West,263,4.0,9.0,77,0.00,,,0.00,Weather View 32 v70,2013-08-12 09:54:00,
2013-08-12 02:59:00,63.9,56.5,29.96,West,270,7.0,9.0,77,0.00,,,0.00,Weather View 32 v70,2013-08-12 09:59:00,
2013-08-12 03:04:00,63.9,56.2,29.96,WNW,283,6.0,10.0,76,0.00,,,0.00,Weather View 32 v70,2013-08-12 10:04:00,
2013-08-12 03:09:00,63.7,56.3,29.96,WNW,286,8.0,10.0,77,0.00,,,0.00,Weather View 32 v70,2013-08-12 10:09:00,
2013-08-12 03:14:00,63.9,56.2,29.95,West,265,4.0,13.0,76,0.00,,,0.00,Weather View 32 v70,2013-08-12 10:14:00,
2013-08-12 03:19:00,63.9,56.2,29.96,WNW,292,2.0,13.0,76,0.00,,,0.00,Weather View 32 v70,2013-08-12 10:19:00,
2013-08-12 03:24:00,63.7,56.0,29.96,WNW,288,2.0,13.0,76,0.00,,,0.00,Weather View 32 v70,2013-08-12 10:24:00,
2013-08-12 03:29:00,63.5,56.1,29.95,WNW,287,0.0,13.0,77,0.00,,,0.00,Weather View 32 v70,2013-08-12 10:29:00,
2013-08-12 03:34:00,63.5,56.1,29.96,WNW,300,8.0,13.0,77,0.00,,,0.00,Weather View 32 v70,2013-08-12 10:34:00,
2013-08-12 03:39:00,63.5,56.1,29.95,West,265,4.0,13.0,77,0.00,,,0.00,Weather View 32 v70,2013-08-12 10:39:00,
2013-08-12 03:44:00,63.5,56.1,29.96,West,271,1.0,13.0,77,0.00,,,0.00,Weather View 32 v70,2013-08-12 10:44:00,
2013-08-12 03:49:00,63.5,56.1,29.96,West,273,4.0,13.0,77,0.00,,,0.00,Weather View 32 v70,2013-08-12 10:49:00,
2013-08-12 03:54:00,63.4,56.0,29.96,WSW,254,4.0,13.0,77,0.00,,,0.00,Weather View 32 v70,2013-08-12 10:54:00,
2013-08-12 03:59:00,63.4,56.0,29.96,West,262,4.0,13.0,77,0.00,,,0.00,Weather View 32 v70,2013-08-12 10:59:00,
2013-08-12 04:04:00,63.4,56.0,29.96,West,279,1.0,13.0,77,0.00,,,0.00,Weather View 32 v70,2013-08-12 11:04:00,
2013-08-12 04:09:00,63.1,55.8,29.96,WNW,284,8.0,13.0,77,0.00,,,0.00,Weather View 32 v70,2013-08-12 11:09:00,
2013-08-12 04:14:00,63.1,55.8,29.96,West,273,5.0,12.0,77,0.00,,,0.00,Weather View 32 v70,2013-08-12 11:14:00,
2013-08-12 04:19:00,62.9,55.6,29.96,West,277,6.0,12.0,77,0.00,,,0.00,Weather View 32 v70,2013-08-12 11:19:00,
2013-08-12 04:24:00,62.9,55.9,29.96,WSW,250,4.0,12.0,78,0.00,,,0.00,Weather View 32 v70,2013-08-12 11:24:00,
2013-08-12 04:29:00,62.7,55.7,29.96,West,275,7.0,13.0,78,0.00,,,0.00,Weather View 32 v70,2013-08-12 11:29:00,
2013-08-12 04:34:00,62.7,55.7,29.96,West,281,7.0,13.0,78,0.00,,,0.00,Weather View 32 v70,2013-08-12 11:34:00,
2013-08-12 04:39:00,62.6,55.6,29.96,WSW,253,2.0,13.0,78,0.00,,,0.00,Weather View 32 v70,2013-08-12 11:39:00,
2013-08-12 04:44:00,62.7,55.7,29.96,WNW,287,3.0,13.0,78,0.00,,,0.00,Weather View 32 v70,2013-08-12 11:44:00,
2013-08-12 04:49:00,62.7,55.7,29.97,West,275,4.0,13.0,78,0.00,,,0.00,Weather View 32 v70,2013-08-12 11:49:00,
2013-08-12 04:54:00,62.6,55.6,29.97,West,274,0.0,13.0,78,0.00,,,0.00,Weather View 32 v70,2013-08-12 11:54:00,
2013-08-12 04:59:00,62.6,55.6,29.97,West,275,4.0,13.0,78,0.00,,,0.00,Weather View 32 v70,2013-08-12 11:59:00,
2013-08-12 05:04:00,62.4,55.4,29.97,West,275,0.0,13.0,78,0.00,,,0.00,Weather View 32 v70,2013-08-12 12:04:00,
2013-08-12 05:09:00,62.4,55.4,29.98,West,270,0.0,13.0,78,0.00,,,0.00,Weather View 32 v70,2013-08-12 12:09:00,
2013-08-12 05:14:00,62.4,55.8,29.98,West,281,0.0,13.0,79,0.00,,,0.00,Weather View 32 v70,2013-08-12 12:14:00,
2013-08-12 05:19:00,62.3,55.7,29.98,West,281,2.0,13.0,79,0.00,,,0.00,Weather View 32 v70,2013-08-12 12:19:00,
2013-08-12 05:24:00,62.1,55.5,29.98,West,281,0.0,13.0,79,0.00,,,0.00,Weather View 32 v70,2013-08-12 12:24:00,
2013-08-12 05:29:00,62.0,55.7,29.98,West,281,0.0,11.0,80,0.00,,,0.00,Weather View 32 v70,2013-08-12 12:29:00,
2013-08-12 05:34:00,61.8,55.5,29.98,West,281,0.0,11.0,80,0.00,,,0.00,Weather View 32 v70,2013-08-12 12:34:00,
2013-08-12 05:39:00,61.6,55.4,29.98,West,281,0.0,11.0,80,0.00,,,0.00,Weather View 32 v70,2013-08-12 12:39:00,
2013-08-12 05:44:00,60.5,52.9,29.98,West,271,0.0,9.0,76,0.00,,,0.00,Weather View 32 v70,2013-08-12 12:44:00,
2013-08-12 05:49:00,59.9,52.7,29.98,West,271,0.0,9.0,77,0.00,,,0.00,Weather View 32 v70,2013-08-12 12:49:00,
2013-08-12 05:54:00,59.2,52.7,29.99,West,271,0.0,9.0,79,0.00,,,0.00,Weather View 32 v70,2013-08-12 12:54:00,
2013-08-12 05:59:00,58.6,52.1,29.99,West,271,2.0,9.0,79,0.00,,,0.00,Weather View 32 v70,2013-08-12 12:59:00,
2013-08-12 06:04:00,58.1,51.9,29.98,West,271,0.0,9.0,80,0.00,,,0.00,Weather View 32 v70,2013-08-12 13:04:00,
2013-08-12 06:09:00,57.6,51.8,29.99,West,271,0.0,8.0,81,0.00,,,0.00,Weather View 32 v70,2013-08-12 13:09:00,
2013-08-12 06:14:00,57.3,51.5,29.99,West,271,0.0,4.0,81,0.00,,,0.00,Weather View 32 v70,2013-08-12 13:14:00,
2013-08-12 06:19:00,57.2,51.7,29.99,West,271,0.0,4.0,82,0.00,,,0.00,Weather View 32 v70,2013-08-12 13:19:00,
2013-08-12 06:24:00,57.0,51.5,29.99,West,271,0.0,4.0,82,0.00,,,0.00,Weather View 32 v70,2013-08-12 13:24:00,
2013-08-12 06:29:00,57.0,51.9,29.99,West,271,0.0,4.0,83,0.00,,,0.00,Weather View 32 v70,2013-08-12 13:29:00,
2013-08-12 06:34:00,57.0,51.9,29.99,West,271,0.0,4.0,83,0.00,,,0.00,Weather View 32 v70,2013-08-12 13:34:00,
2013-08-12 06:39:00,56.9,52.1,29.99,West,270,2.0,4.0,84,0.00,,,0.00,Weather View 32 v70,2013-08-12 13:39:00,
2013-08-12 06:44:00,57.2,52.4,29.99,West,270,0.0,4.0,84,0.00,,,0.00,Weather View 32 v70,2013-08-12 13:44:00,
2013-08-12 06:49:00,57.3,52.5,29.99,West,270,0.0,4.0,84,0.00,,,0.00,Weather View 32 v70,2013-08-12 13:49:00,
2013-08-12 06:54:00,57.6,52.8,29.99,West,270,0.0,3.0,84,0.00,,,0.00,Weather View 32 v70,2013-08-12 13:54:00,
2013-08-12 06:59:00,57.8,53.0,29.99,West,270,0.0,3.0,84,0.00,,,0.00,Weather View 32 v70,2013-08-12 13:59:00,
2013-08-12 07:04:00,58.3,53.1,29.99,West,270,0.0,3.0,83,0.00,,,0.00,Weather View 32 v70,2013-08-12 14:04:00,
2013-08-12 07:09:00,58.9,53.1,30.00,WSW,241,0.0,6.0,81,0.00,,,0.00,Weather View 32 v70,2013-08-12 14:09:00,
2013-08-12 07:14:00,59.5,54.0,30.00,WSW,242,0.0,6.0,82,0.00,,,0.00,Weather View 32 v70,2013-08-12 14:14:00,
2013-08-12 07:19:00,60.1,54.2,30.00,WSW,241,0.0,6.0,81,0.00,,,0.00,Weather View 32 v70,2013-08-12 14:19:00,
2013-08-12 07:24:00,60.9,54.3,30.00,WSW,241,0.0,6.0,79,0.00,,,0.00,Weather View 32 v70,2013-08-12 14:24:00,
2013-08-12 07:29:00,61.6,55.0,30.00,WSW,242,0.0,6.0,79,0.00,,,0.00,Weather View 32 v70,2013-08-12 14:29:00,
2013-08-12 07:34:00,62.0,54.0,30.00,WSW,238,0.0,6.0,75,0.00,,,0.00,Weather View 32 v70,2013-08-12 14:34:00,
2013-08-12 07:39:00,61.6,52.8,30.00,SW,236,0.0,6.0,73,0.00,,,0.00,Weather View 32 v70,2013-08-12 14:39:00,
2013-08-12 07:44:00,61.6,53.6,30.00,SW,236,0.0,6.0,75,0.00,,,0.00,Weather View 32 v70,2013-08-12 14:44:00,
2013-08-12 07:49:00,62.1,54.4,30.00,SW,236,0.0,6.0,76,0.00,,,0.00,Weather View 32 v70,2013-08-12 14:49:00,
2013-08-12 07:54:00,62.3,53.5,30.00,SW,234,0.0,6.0,73,0.00,,,0.00,Weather View 32 v70,2013-08-12 14:54:00,
2013-08-12 07:59:00,62.4,53.6,30.00,SW,234,0.0,6.0,73,0.00,,,0.00,Weather View 32 v70,2013-08-12 14:59:00,
2013-08-12 08:04:00,62.9,54.1,30.00,SW,234,0.0,6.0,73,0.00,,,0.00,Weather View 32 v70,2013-08-12 15:04:00,
2013-08-12 08:09:00,63.7,56.0,30.01,NW,307,7.0,7.0,76,0.00,,,0.00,Weather View 32 v70,2013-08-12 15:09:00,
2013-08-12 08:14:00,64.3,56.2,30.01,WSW,258,5.0,9.0,75,0.00,,,0.00,Weather View 32 v70,2013-08-12 15:14:00,
2013-08-12 08:19:00,65.0,56.5,30.00,West,263,4.0,9.0,74,0.00,,,0.00,Weather View 32 v70,2013-08-12 15:19:00,
2013-08-12 08:24:00,65.3,56.4,30.00,West,275,3.0,9.0,73,0.00,,,0.00,Weather View 32 v70,2013-08-12 15:24:00,
2013-08-12 08:29:00,65.6,56.3,30.01,WNW,294,2.0,9.0,72,0.00,,,0.00,Weather View 32 v70,2013-08-12 15:29:00,
2013-08-12 08:34:00,66.1,56.8,30.00,WNW,283,2.0,9.0,72,0.00,,,0.00,Weather View 32 v70,2013-08-12 15:34:00,
2013-08-12 08:39:00,66.4,56.7,30.00,WNW,299,1.0,9.0,71,0.00,,,0.00,Weather View 32 v70,2013-08-12 15:39:00,
2013-08-12 08:44:00,66.6,56.1,30.00,WNW,294,0.0,9.0,69,0.00,,,0.00,Weather View 32 v70,2013-08-12 15:44:00,
2013-08-12 08:49:00,66.8,56.3,30.00,WNW,303,6.0,9.0,69,0.00,,,0.00,Weather View 32 v70,2013-08-12 15:49:00,
2013-08-12 08:54:00,67.1,56.6,30.00,WNW,282,1.0,10.0,69,0.00,,,0.00,Weather View 32 v70,2013-08-12 15:54:00,
2013-08-12 08:59:00,67.4,56.8,30.00,NW,309,0.0,10.0,69,0.00,,,0.00,Weather View 32 v70,2013-08-12 15:59:00,
2013-08-12 09:04:00,67.8,56.4,30.00,West,281,3.0,11.0,67,0.00,,,0.00,Weather View 32 v70,2013-08-12 16:04:00,
2013-08-12 09:09:00,67.9,56.1,30.00,WNW,298,2.0,11.0,66,0.00,,,0.00,Weather View 32 v70,2013-08-12 16:09:00,
2013-08-12 09:14:00,68.3,56.0,30.00,West,280,2.0,11.0,65,0.00,,,0.00,Weather View 32 v70,2013-08-12 16:14:00,
2013-08-12 09:19:00,68.6,56.3,30.00,West,275,1.0,11.0,65,0.00,,,0.00,Weather View 32 v70,2013-08-12 16:19:00,
2013-08-12 09:24:00,69.1,56.8,30.00,WNW,301,0.0,11.0,65,0.00,,,0.00,Weather View 32 v70,2013-08-12 16:24:00,
2013-08-12 09:29:00,69.6,56.4,30.00,WNW,302,0.0,11.0,63,0.00,,,0.00,Weather View 32 v70,2013-08-12 16:29:00,
2013-08-12 09:34:00,70.1,56.0,30.00,West,280,0.0,11.0,61,0.00,,,0.00,Weather View 32 v70,2013-08-12 16:34:00,
2013-08-12 09:39:00,70.4,56.3,30.00,NW,315,4.0,11.0,61,0.00,,,0.00,Weather View 32 v70,2013-08-12 16:39:00,
2013-08-12 09:44:00,70.8,57.1,30.00,West,279,16.0,16.0,62,0.00,,,0.00,Weather View 32 v70,2013-08-12 16:44:00,
2013-08-12 09:49:00,70.8,56.6,29.99,WNW,286,1.0,16.0,61,0.00,,,0.00,Weather View 32 v70,2013-08-12 16:49:00,
2013-08-12 09:54:00,70.9,56.3,30.00,NW,310,5.0,16.0,60,0.00,,,0.00,Weather View 32 v70,2013-08-12 16:54:00,
2013-08-12 09:59:00,71.3,56.2,30.00,NW,311,7.0,16.0,59,0.00,,,0.00,Weather View 32 v70,2013-08-12 16:59:00,
2013-08-12 10:04:00,71.5,56.4,29.99,NW,311,6.0,16.0,59,0.00,,,0.00,Weather View 32 v70,2013-08-12 17:04:00,
2013-08-12 10:09:00,71.8,55.7,29.99,WNW,291,5.0,16.0,57,0.00,,,0.00,Weather View 32 v70,2013-08-12 17:09:00,
2013-08-12 10:14:00,72.1,56.0,29.99,WNW,284,1.0,16.0,57,0.00,,,0.00,Weather View 32 v70,2013-08-12 17:14:00,
2013-08-12 10:19:00,72.3,56.6,29.99,WNW,301,5.0,16.0,58,0.00,,,0.00,Weather View 32 v70,2013-08-12 17:19:00,
2013-08-12 10:24:00,72.7,56.0,29.99,WNW,297,2.0,16.0,56,0.00,,,0.00,Weather View 32 v70,2013-08-12 17:24:00,
2013-08-12 10:29:00,72.8,55.6,29.99,WNW,286,6.0,16.0,55,0.00,,,0.00,Weather View 32 v70,2013-08-12 17:29:00,
2013-08-12 10:34:00,72.8,55.6,29.99,WNW,288,9.0,16.0,55,0.00,,,0.00,Weather View 32 v70,2013-08-12 17:34:00,
2013-08-12 10:39:00,73.0,56.3,29.99,WNW,300,5.0,16.0,56,0.00,,,0.00,Weather View 32 v70,2013-08-12 17:39:00,
2013-08-12 10:44:00,73.0,55.3,29.99,West,265,10.0,16.0,54,0.00,,,0.00,Weather View 32 v70,2013-08-12 17:44:00,
2013-08-12 10:49:00,73.0,55.8,29.99,WNW,284,6.0,13.0,55,0.00,,,0.00,Weather View 32 v70,2013-08-12 17:49:00,
2013-08-12 10:54:00,73.5,55.8,29.99,NW,304,3.0,14.0,54,0.00,,,0.00,Weather View 32 v70,2013-08-12 17:54:00,
2013-08-12 10:59:00,73.7,56.0,29.99,WNW,296,2.0,14.0,54,0.00,,,0.00,Weather View 32 v70,2013-08-12 17:59:00,
2013-08-12 11:04:00,73.9,55.6,29.99,WNW,296,5.0,15.0,53,0.00,,,0.00,Weather View 32 v70,2013-08-12 18:04:00,
2013-08-12 11:09:00,74.2,55.9,29.99,WNW,292,6.0,15.0,53,0.00,,,0.00,Weather View 32 v70,2013-08-12 18:09:00,
2013-08-12 11:14:00,73.9,54.6,29.99,WNW,288,4.0,15.0,51,0.00,,,0.00,Weather View 32 v70,2013-08-12 18:14:00,
2013-08-12 11:19:00,73.9,55.6,29.99,West,269,12.0,15.0,53,0.00,,,0.00,Weather View 32 v70,2013-08-12 18:19:00,
2013-08-12 11:24:00,74.4,54.5,29.99,NW,315,6.0,15.0,50,0.00,,,0.00,Weather View 32 v70,2013-08-12 18:24:00,
2013-08-12 11:29:00,74.6,55.2,29.98,West,280,2.0,15.0,51,0.00,,,0.00,Weather View 32 v70,2013-08-12 18:29:00,
2013-08-12 11:34:00,75.1,55.1,29.98,WNW,292,2.0,15.0,50,0.00,,,0.00,Weather View 32 v70,2013-08-12 18:34:00,
2013-08-12 11:39:00,75.6,55.6,29.98,WNW,298,2.0,15.0,50,0.00,,,0.00,Weather View 32 v70,2013-08-12 18:39:00,
2013-08-12 11:44:00,75.6,55.0,29.98,WNW,298,8.0,15.0,49,0.00,,,0.00,Weather View 32 v70,2013-08-12 18:44:00,
2013-08-12 11:49:00,75.4,55.4,29.98,WNW,292,2.0,17.0,50,0.00,,,0.00,Weather View 32 v70,2013-08-12 18:49:00,
2013-08-12 11:54:00,75.6,55.6,29.98,WNW,301,6.0,17.0,50,0.00,,,0.00,Weather View 32 v70,2013-08-12 18:54:00,
2013-08-12 11:59:00,76.0,55.4,29.98,WNW,282,7.0,17.0,49,0.00,,,0.00,Weather View 32 v70,2013-08-12 18:59:00,
2013-08-12 12:04:00,76.3,55.1,29.97,West,266,3.0,17.0,48,0.00,,,0.00,Weather View 32 v70,2013-08-12 19:04:00,
2013-08-12 12:09:00,76.1,54.3,29.97,NW,306,6.0,17.0,47,0.00,,,0.00,Weather View 32 v70,2013-08-12 19:09:00,
2013-08-12 12:14:00,76.8,55.0,29.97,WNW,300,8.0,17.0,47,0.00,,,0.00,Weather View 32 v70,2013-08-12 19:14:00,
2013-08-12 12:19:00,77.6,55.7,29.97,NW,306,2.0,17.0,47,0.00,,,0.00,Weather View 32 v70,2013-08-12 19:19:00,
2013-08-12 12:24:00,77.2,54.7,29.96,WSW,248,5.0,17.0,46,0.00,,,0.00,Weather View 32 v70,2013-08-12 19:24:00,
2013-08-12 12:29:00,77.4,54.9,29.96,WNW,296,6.0,17.0,46,0.00,,,0.00,Weather View 32 v70,2013-08-12 19:29:00,
2013-08-12 12:34:00,77.4,54.9,29.96,West,279,1.0,17.0,46,0.00,,,0.00,Weather View 32 v70,2013-08-12 19:34:00,
2013-08-12 12:39:00,77.4,55.5,29.96,West,275,4.0,17.0,47,0.00,,,0.00,Weather View 32 v70,2013-08-12 19:39:00,
2013-08-12 12:44:00,78.1,55.6,29.96,NW,323,1.0,17.0,46,0.00,,,0.00,Weather View 32 v70,2013-08-12 19:44:00,
2013-08-12 12:49:00,78.5,55.9,29.95,WSW,250,5.0,15.0,46,0.00,,,0.00,Weather View 32 v70,2013-08-12 19:49:00,
2013-08-12 12:54:00,78.3,55.7,29.95,WNW,285,8.0,15.0,46,0.00,,,0.00,Weather View 32 v70,2013-08-12 19:54:00,
2013-08-12 12:59:00,78.6,54.8,29.95,WNW,290,6.0,15.0,44,0.00,,,0.00,Weather View 32 v70,2013-08-12 19:59:00,
2013-08-12 13:04:00,78.8,55.6,29.95,West,279,6.0,15.0,45,0.00,,,0.00,Weather View 32 v70,2013-08-12 20:04:00,
2013-08-12 13:09:00,78.8,55.6,29.95,NW,308,8.0,15.0,45,0.00,,,0.00,Weather View 32 v70,2013-08-12 20:09:00,
2013-08-12 13:14:00,78.8,55.6,29.95,West,259,8.0,15.0,45,0.00,,,0.00,Weather View 32 v70,2013-08-12 20:14:00,
2013-08-12 13:19:00,78.6,56.0,29.94,NW,305,6.0,15.0,46,0.00,,,0.00,Weather View 32 v70,2013-08-12 20:19:00,
2013-08-12 13:24:00,78.6,56.0,29.94,WNW,300,8.0,15.0,46,0.00,,,0.00,Weather View 32 v70,2013-08-12 20:24:00,
2013-08-12 13:29:00,78.8,55.6,29.94,NW,308,3.0,15.0,45,0.00,,,0.00,Weather View 32 v70,2013-08-12 20:29:00,
2013-08-12 13:34:00,79.4,56.1,29.94,NW,311,3.0,15.0,45,0.00,,,0.00,Weather View 32 v70,2013-08-12 20:34:00,
2013-08-12 13:39:00,79.6,56.3,29.94,WNW,302,3.0,15.0,45,0.00,,,0.00,Weather View 32 v70,2013-08-12 20:39:00,
2013-08-12 13:44:00,79.8,55.9,29.94,WNW,284,8.0,17.0,44,0.00,,,0.00,Weather View 32 v70,2013-08-12 20:44:00,
2013-08-12 13:49:00,79.4,55.5,29.94,West,273,5.0,17.0,44,0.00,,,0.00,Weather View 32 v70,2013-08-12 20:49:00,
2013-08-12 13:54:00,79.8,56.5,29.94,WSW,237,7.0,17.0,45,0.00,,,0.00,Weather View 32 v70,2013-08-12 20:54:00,
2013-08-12 13:59:00,80.1,56.8,29.93,West,270,9.0,17.0,45,0.00,,,0.00,Weather View 32 v70,2013-08-12 20:59:00,
2013-08-12 14:04:00,79.8,55.2,29.93,West,273,8.0,17.0,43,0.00,,,0.00,Weather View 32 v70,2013-08-12 21:04:00,
2013-08-12 14:09:00,79.8,55.9,29.93,WNW,296,6.0,17.0,44,0.00,,,0.00,Weather View 32 v70,2013-08-12 21:09:00,
2013-08-12 14:14:00,79.8,55.9,29.93,NW,304,7.0,17.0,44,0.00,,,0.00,Weather View 32 v70,2013-08-12 21:14:00,
2013-08-12 14:19:00,79.9,56.0,29.93,WSW,256,9.0,17.0,44,0.00,,,0.00,Weather View 32 v70,2013-08-12 21:19:00,
2013-08-12 14:24:00,79.9,56.0,29.93,NW,309,7.0,20.0,44,0.00,,,0.00,Weather View 32 v70,2013-08-12 21:24:00,
2013-08-12 14:29:00,80.1,56.8,29.93,West,267,11.0,20.0,45,0.00,,,0.00,Weather View 32 v70,2013-08-12 21:29:00,
2013-08-12 14:34:00,80.5,57.1,29.93,WNW,297,10.0,20.0,45,0.00,,,0.00,Weather View 32 v70,2013-08-12 21:34:00,
2013-08-12 14:39:00,80.7,57.3,29.93,WSW,256,8.0,20.0,45,0.00,,,0.00,Weather View 32 v70,2013-08-12 21:39:00,
2013-08-12 14:44:00,80.1,56.1,29.92,WNW,296,11.0,21.0,44,0.00,,,0.00,Weather View 32 v70,2013-08-12 21:44:00,
2013-08-12 14:49:00,80.3,57.6,29.92,WNW,302,6.0,21.0,46,0.00,,,0.00,Weather View 32 v70,2013-08-12 21:49:00,
2013-08-12 14:54:00,80.5,57.1,29.92,WNW,294,7.0,21.0,45,0.00,,,0.00,Weather View 32 v70,2013-08-12 21:54:00,
2013-08-12 14:59:00,80.9,57.5,29.92,West,271,11.0,21.0,45,0.00,,,0.00,Weather View 32 v70,2013-08-12 21:59:00,
2013-08-12 15:05:00,81.1,56.4,29.92,WSW,253,9.0,21.0,43,0.00,,,0.00,Weather View 32 v70,2013-08-12 22:05:00,
2013-08-12 15:10:00,81.1,57.0,29.92,WNW,286,6.0,21.0,44,0.00,,,0.00,Weather View 32 v70,2013-08-12 22:10:00,
2013-08-12 15:15:00,80.7,56.7,29.92,West,276,6.0,21.0,44,0.00,,,0.00,Weather View 32 v70,2013-08-12 22:15:00,
2013-08-12 15:20:00,80.9,57.5,29.92,WNW,285,8.0,21.0,45,0.00,,,0.00,Weather View 32 v70,2013-08-12 22:20:00,
2013-08-12 15:25:00,81.1,56.4,29.92,WNW,286,6.0,21.0,43,0.00,,,0.00,Weather View 32 v70,2013-08-12 22:25:00,
2013-08-12 15:30:00,81.1,57.0,29.91,WSW,256,10.0,21.0,44,0.00,,,0.00,Weather View 32 v70,2013-08-12 22:30:00,
2013-08-12 15:34:00,80.9,56.9,29.91,WNW,297,7.0,21.0,44,0.00,,,0.00,Weather View 32 v70,2013-08-12 22:34:00,
2013-08-12 15:40:00,80.9,56.9,29.91,West,267,15.0,21.0,44,0.00,,,0.00,Weather View 32 v70,2013-08-12 22:40:00,
2013-08-12 15:45:00,80.9,56.9,29.91,WNW,282,6.0,21.0,44,0.00,,,0.00,Weather View 32 v70,2013-08-12 22:45:00,
2013-08-12 15:49:00,80.5,56.5,29.91,West,271,19.0,21.0,44,0.00,,,0.00,Weather View 32 v70,2013-08-12 22:49:00,
2013-08-12 15:55:00,80.7,56.7,29.91,WNW,298,10.0,25.0,44,0.00,,,0.00,Weather View 32 v70,2013-08-12 22:55:00,
2013-08-12 16:00:00,80.9,56.9,29.91,WNW,303,7.0,25.0,44,0.00,,,0.00,Weather View 32 v70,2013-08-12 23:00:00,
2013-08-12 16:05:00,81.1,56.4,29.91,West,268,3.0,25.0,43,0.00,,,0.00,Weather View 32 v70,2013-08-12 23:05:00,
2013-08-12 16:10:00,80.9,56.2,29.91,West,278,6.0,25.0,43,0.00,,,0.00,Weather View 32 v70,2013-08-12 23:10:00,
2013-08-12 16:15:00,80.7,56.0,29.91,West,266,9.0,25.0,43,0.00,,,0.00,Weather View 32 v70,2013-08-12 23:15:00,
2013-08-12 16:20:00,80.7,56.0,29.91,West,278,6.0,25.0,43,0.00,,,0.00,Weather View 32 v70,2013-08-12 23:20:00,
2013-08-12 16:24:00,80.9,56.2,29.91,West,280,11.0,25.0,43,0.00,,,0.00,Weather View 32 v70,2013-08-12 23:24:00,
2013-08-12 16:29:00,80.7,56.0,29.91,West,267,4.0,25.0,43,0.00,,,0.00,Weather View 32 v70,2013-08-12 23:29:00,
2013-08-12 16:34:00,80.7,56.7,29.91,West,262,8.0,25.0,44,0.00,,,0.00,Weather View 32 v70,2013-08-12 23:34:00,
2013-08-12 16:39:00,80.7,56.0,29.91,NW,310,4.0,25.0,43,0.00,,,0.00,Weather View 32 v70,2013-08-12 23:39:00,
2013-08-12 16:44:00,80.9,56.2,29.91,WNW,300,11.0,25.0,43,0.00,,,0.00,Weather View 32 v70,2013-08-12 23:44:00,
2013-08-12 16:49:00,80.7,56.0,29.91,WNW,303,8.0,25.0,43,0.00,,,0.00,Weather View 32 v70,2013-08-12 23:49:00,
2013-08-12 16:54:00,80.7,56.0,29.91,West,265,10.0,21.0,43,0.00,,,0.00,Weather View 32 v70,2013-08-12 23:54:00,
2013-08-12 16:59:00,80.3,55.7,29.91,WNW,294,9.0,21.0,43,0.00,,,0.00,Weather View 32 v70,2013-08-12 23:59:00,
2013-08-12 17:04:00,80.3,56.3,29.91,WNW,301,9.0,21.0,44,0.00,,,0.00,Weather View 32 v70,2013-08-13 00:04:00,
2013-08-12 17:09:00,80.3,55.7,29.91,West,261,12.0,21.0,43,0.00,,,0.00,Weather View 32 v70,2013-08-13 00:09:00,
2013-08-12 17:14:00,80.1,55.5,29.91,WNW,298,10.0,21.0,43,0.00,,,0.00,Weather View 32 v70,2013-08-13 00:14:00,
2013-08-12 17:19:00,79.8,55.2,29.91,NW,307,12.0,21.0,43,0.00,,,0.00,Weather View 32 v70,2013-08-13 00:19:00,
2013-08-12 17:24:00,79.9,55.3,29.91,NW,305,11.0,21.0,43,0.00,,,0.00,Weather View 32 v70,2013-08-13 00:24:00,
2013-08-12 17:29:00,79.9,55.3,29.91,West,263,9.0,19.0,43,0.00,,,0.00,Weather View 32 v70,2013-08-13 00:29:00,
2013-08-12 17:34:00,79.9,56.0,29.91,WSW,258,5.0,19.0,44,0.00,,,0.00,Weather View 32 v70,2013-08-13 00:34:00,
2013-08-12 17:39:00,79.6,55.7,29.91,NW,304,8.0,19.0,44,0.00,,,0.00,Weather View 32 v70,2013-08-13 00:39:00,
2013-08-12 17:44:00,79.4,55.5,29.91,WNW,298,3.0,19.0,44,0.00,,,0.00,Weather View 32 v70,2013-08-13 00:44:00,
2013-08-12 17:49:00,79.4,56.1,29.91,NW,305,9.0,19.0,45,0.00,,,0.00,Weather View 32 v70,2013-08-13 00:49:00,
2013-08-12 17:54:00,79.2,56.6,29.91,WNW,290,6.0,19.0,46,0.00,,,0.00,Weather View 32 v70,2013-08-13 00:54:00,
2013-08-12 17:59:00,79.2,56.0,29.91,WNW,289,6.0,19.0,45,0.00,,,0.00,Weather View 32 v70,2013-08-13 00:59:00,
2013-08-12 18:04:00,79.0,55.8,29.91,WNW,287,7.0,19.0,45,0.00,,,0.00,Weather View 32 v70,2013-08-13 01:04:00,
2013-08-12 18:09:00,78.8,55.6,29.91,WNW,290,5.0,19.0,45,0.00,,,0.00,Weather View 32 v70,2013-08-13 01:09:00,
2013-08-12 18:14:00,78.8,56.2,29.91,WSW,252,2.0,19.0,46,0.00,,,0.00,Weather View 32 v70,2013-08-13 01:14:00,
2013-08-12 18:19:00,78.8,56.2,29.91,WNW,288,4.0,16.0,46,0.00,,,0.00,Weather View 32 v70,2013-08-13 01:19:00,
2013-08-12 18:24:00,78.8,56.2,29.91,West,273,6.0,16.0,46,0.00,,,0.00,Weather View 32 v70,2013-08-13 01:24:00,
2013-08-12 18:29:00,78.3,55.7,29.91,WSW,252,7.0,16.0,46,0.00,,,0.00,Weather View 32 v70,2013-08-13 01:29:00,
2013-08-12 18:34:00,77.9,55.4,29.91,WNW,291,10.0,16.0,46,0.00,,,0.00,Weather View 32 v70,2013-08-13 01:34:00,
2013-08-12 18:39:00,77.7,55.2,29.91,WSW,251,15.0,16.0,46,0.00,,,0.00,Weather View 32 v70,2013-08-13 01:39:00,
2013-08-12 18:44:00,77.6,55.1,29.91,West,274,4.0,15.0,46,0.00,,,0.00,Weather View 32 v70,2013-08-13 01:44:00,
2013-08-12 18:49:00,77.2,55.3,29.91,West,271,11.0,16.0,47,0.00,,,0.00,Weather View 32 v70,2013-08-13 01:49:00,
2013-08-12 18:54:00,77.0,55.2,29.91,WSW,252,7.0,16.0,47,0.00,,,0.00,Weather View 32 v70,2013-08-13 01:54:00,
2013-08-12 18:59:00,77.0,55.2,29.91,NNW,330,3.0,17.0,47,0.00,,,0.00,Weather View 32 v70,2013-08-13 01:59:00,
2013-08-12 19:04:00,76.8,55.0,29.91,WSW,249,8.0,20.0,47,0.00,,,0.00,Weather View 32 v70,2013-08-13 02:04:00,
2013-08-12 19:09:00,76.5,55.3,29.91,West,274,14.0,20.0,48,0.00,,,0.00,Weather View 32 v70,2013-08-13 02:09:00,
2013-08-12 19:14:00,76.3,55.1,29.92,WNW,294,5.0,20.0,48,0.00,,,0.00,Weather View 32 v70,2013-08-13 02:14:00,
2013-08-12 19:19:00,76.1,54.9,29.92,WNW,290,6.0,20.0,48,0.00,,,0.00,Weather View 32 v70,2013-08-13 02:19:00,
2013-08-12 19:24:00,76.0,55.4,29.92,WSW,257,6.0,20.0,49,0.00,,,0.00,Weather View 32 v70,2013-08-13 02:24:00,
2013-08-12 19:29:00,75.8,54.6,29.92,WSW,243,7.0,20.0,48,0.00,,,0.00,Weather View 32 v70,2013-08-13 02:29:00,
2013-08-12 19:34:00,75.6,55.0,29.92,WNW,297,6.0,20.0,49,0.00,,,0.00,Weather View 32 v70,2013-08-13 02:34:00,
2013-08-12 19:39:00,75.4,54.3,29.93,West,278,0.0,20.0,48,0.00,,,0.00,Weather View 32 v70,2013-08-13 02:39:00,
2013-08-12 19:44:00,75.4,54.3,29.93,NNW,333,0.0,20.0,48,0.00,,,0.00,Weather View 32 v70,2013-08-13 02:44:00,
2013-08-12 19:49:00,75.3,54.2,29.93,WSW,257,0.0,20.0,48,0.00,,,0.00,Weather View 32 v70,2013-08-13 02:49:00,
2013-08-12 19:54:00,75.1,54.6,29.93,WSW,256,0.0,20.0,49,0.00,,,0.00,Weather View 32 v70,2013-08-13 02:54:00,
2013-08-12 19:59:00,74.7,54.2,29.94,WSW,253,2.0,20.0,49,0.00,,,0.00,Weather View 32 v70,2013-08-13 02:59:00,
2013-08-12 20:04:00,74.6,54.1,29.94,West,264,3.0,17.0,49,0.00,,,0.00,Weather View 32 v70,2013-08-13 03:04:00,
2013-08-12 20:09:00,74.4,53.9,29.94,West,278,6.0,17.0,49,0.00,,,0.00,Weather View 32 v70,2013-08-13 03:09:00,
2013-08-12 20:14:00,74.2,54.3,29.95,WSW,254,7.0,17.0,50,0.00,,,0.00,Weather View 32 v70,2013-08-13 03:14:00,
2013-08-12 20:19:00,74.0,54.1,29.95,West,269,3.0,16.0,50,0.00,,,0.00,Weather View 32 v70,2013-08-13 03:19:00,
2013-08-12 20:24:00,74.0,54.1,29.95,West,261,6.0,16.0,50,0.00,,,0.00,Weather View 32 v70,2013-08-13 03:24:00,
2013-08-12 20:29:00,73.9,54.0,29.95,West,259,5.0,16.0,50,0.00,,,0.00,Weather View 32 v70,2013-08-13 03:29:00,
2013-08-12 20:34:00,73.9,54.0,29.96,WSW,248,2.0,15.0,50,0.00,,,0.00,Weather View 32 v70,2013-08-13 03:34:00,
2013-08-12 20:39:00,73.7,53.8,29.96,West,265,4.0,15.0,50,0.00,,,0.00,Weather View 32 v70,2013-08-13 03:39:00,
2013-08-12 20:44:00,73.3,53.5,29.96,WSW,248,10.0,15.0,50,0.00,,,0.00,Weather View 32 v70,2013-08-13 03:44:00,
2013-08-12 20:53:00,73.2,53.9,29.96,West,272,9.0,15.0,51,0.00,,,0.00,Weather View 32 v70,2013-08-13 03:53:00,
2013-08-12 20:58:00,73.0,53.7,29.97,West,261,2.0,15.0,51,0.00,,,0.00,Weather View 32 v70,2013-08-13 03:58:00,
2013-08-12 21:01:00,73.0,54.3,29.97,WNW,285,3.0,15.0,52,0.00,,,0.00,Weather View 32 v70,2013-08-13 04:01:00,
2013-08-12 21:06:00,72.8,54.1,29.97,West,264,3.0,15.0,52,0.00,,,0.00,Weather View 32 v70,2013-08-13 04:06:00,
2013-08-12 21:11:00,72.7,54.5,29.97,West,267,2.0,15.0,53,0.00,,,0.00,Weather View 32 v70,2013-08-13 04:11:00,
2013-08-12 21:16:00,72.3,54.2,29.97,West,261,4.0,15.0,53,0.00,,,0.00,Weather View 32 v70,2013-08-13 04:16:00,
2013-08-12 21:21:00,72.3,54.2,29.97,West,266,2.0,15.0,53,0.00,,,0.00,Weather View 32 v70,2013-08-13 04:21:00,
2013-08-12 21:26:00,72.1,54.5,29.97,West,281,4.0,15.0,54,0.00,,,0.00,Weather View 32 v70,2013-08-13 04:26:00,
2013-08-12 21:31:00,72.0,54.4,29.97,West,267,2.0,15.0,54,0.00,,,0.00,Weather View 32 v70,2013-08-13 04:31:00,
2013-08-12 21:36:00,72.0,54.4,29.97,WNW,292,0.0,13.0,54,0.00,,,0.00,Weather View 32 v70,2013-08-13 04:36:00,
2013-08-12 21:41:00,71.8,54.2,29.97,West,273,0.0,13.0,54,0.00,,,0.00,Weather View 32 v70,2013-08-13 04:41:00,
2013-08-12 21:46:00,71.8,54.2,29.97,West,262,0.0,13.0,54,0.00,,,0.00,Weather View 32 v70,2013-08-13 04:46:00,
2013-08-12 21:51:00,71.8,54.7,29.98,West,275,4.0,13.0,55,0.00,,,0.00,Weather View 32 v70,2013-08-13 04:51:00,
2013-08-12 21:56:00,71.6,54.0,29.98,West,265,0.0,13.0,54,0.00,,,0.00,Weather View 32 v70,2013-08-13 04:56:00,
2013-08-12 22:01:00,71.6,54.5,29.98,West,268,1.0,12.0,55,0.00,,,0.00,Weather View 32 v70,2013-08-13 05:01:00,
2013-08-12 22:06:00,71.5,54.4,29.98,West,267,0.0,12.0,55,0.00,,,0.00,Weather View 32 v70,2013-08-13 05:06:00,
2013-08-12 22:11:00,71.1,54.6,29.98,West,267,0.0,11.0,56,0.00,,,0.00,Weather View 32 v70,2013-08-13 05:11:00,
2013-08-12 22:16:00,70.9,54.9,29.98,WSW,251,0.0,11.0,57,0.00,,,0.00,Weather View 32 v70,2013-08-13 05:16:00,
2013-08-12 22:21:00,70.8,54.3,29.98,North,0,0.0,11.0,56,0.00,,,0.00,Weather View 32 v70,2013-08-13 05:21:00,
2013-08-12 22:26:00,70.6,54.6,29.98,North,0,2.0,11.0,57,0.00,,,0.00,Weather View 32 v70,2013-08-13 05:26:00,
2013-08-12 22:31:00,70.6,54.6,29.98,West,266,0.0,11.0,57,0.00,,,0.00,Weather View 32 v70,2013-08-13 05:31:00,
2013-08-12 22:36:00,70.4,54.4,29.98,West,268,0.0,11.0,57,0.00,,,0.00,Weather View 32 v70,2013-08-13 05:36:00,
2013-08-12 22:41:00,70.3,54.3,29.98,WNW,286,0.0,11.0,57,0.00,,,0.00,Weather View 32 v70,2013-08-13 05:41:00,
2013-08-12 22:46:00,70.3,54.3,29.98,West,265,4.0,9.0,57,0.00,,,0.00,Weather View 32 v70,2013-08-13 05:46:00,
2013-08-12 22:51:00,70.3,54.3,29.98,WSW,252,5.0,8.0,57,0.00,,,0.00,Weather View 32 v70,2013-08-13 05:51:00,
2013-08-12 22:56:00,70.4,54.4,29.98,West,267,4.0,10.0,57,0.00,,,0.00,Weather View 32 v70,2013-08-13 05:56:00,
2013-08-12 23:01:00,70.3,53.8,29.98,West,263,3.0,10.0,56,0.00,,,0.00,Weather View 32 v70,2013-08-13 06:01:00,
2013-08-12 23:06:00,70.3,53.8,29.98,West,259,2.0,10.0,56,0.00,,,0.00,Weather View 32 v70,2013-08-13 06:06:00,
2013-08-12 23:11:00,70.4,53.9,29.99,SW,236,5.0,12.0,56,0.00,,,0.00,Weather View 32 v70,2013-08-13 06:11:00,
2013-08-12 23:16:00,70.4,53.9,29.99,West,271,2.0,12.0,56,0.00,,,0.00,Weather View 32 v70,2013-08-13 06:16:00,
2013-08-12 23:21:00,70.4,53.9,29.99,West,265,4.0,12.0,56,0.00,,,0.00,Weather View 32 v70,2013-08-13 06:21:00,
2013-08-12 23:26:00,70.4,53.9,29.99,West,276,4.0,12.0,56,0.00,,,0.00,Weather View 32 v70,2013-08-13 06:26:00,
2013-08-12 23:31:00,70.1,54.1,29.99,West,273,0.0,12.0,57,0.00,,,0.00,Weather View 32 v70,2013-08-13 06:31:00,
2013-08-12 23:36:00,69.8,53.8,29.99,West,272,3.0,12.0,57,0.00,,,0.00,Weather View 32 v70,2013-08-13 06:36:00,
2013-08-12 23:41:00,69.6,54.1,29.99,WNW,292,5.0,12.0,58,0.00,,,0.00,Weather View 32 v70,2013-08-13 06:41:00,
2013-08-12 23:46:00,69.4,54.4,29.99,WNW,285,5.0,12.0,59,0.00,,,0.00,Weather View 32 v70,2013-08-13 06:46:00,
2013-08-12 23:51:00,69.3,54.8,30.00,WNW,283,3.0,12.0,60,0.00,,,0.00,Weather View 32 v70,2013-08-13 06:51:00,
2013-08-12 23:56:00,69.1,55.0,30.00,WSW,257,3.0,12.0,61,0.00,,,0.00,Weather View 32 v70,2013-08-13 06:56:00,